sensor_id;sensor_type;location;lat;lon;timestamp;temperature;humidity
24522;DHT22;12680;57.804;12.190;2023-07-13T00:02:00;16.30;99.90
24522;DHT22;12680;57.804;12.190;2023-07-13T00:04:26;16.10;99.90
24522;DHT22;12680;57.804;12.190;2023-07-13T00:06:53;16.50;99.90
24522;DHT22;12680;57.804;12.190;2023-07-13T00:09:20;14.90;99.90
24522;DHT22;12680;57.804;12.190;2023-07-13T00:11:50;17.20;99.90
24522;DHT22;12680;57.804;12.190;2023-07-13T00:14:17;14.90;99.90
24522;DHT22;12680;57.804;12.190;2023-07-13T00:16:44;14.90;99.90
24522;DHT22;12680;57.804;12.190;2023-07-13T00:19:11;14.80;99.90
24522;DHT22;12680;57.804;12.190;2023-07-13T00:21:38;15.10;99.90
24522;DHT22;12680;57.804;12.190;2023-07-13T00:24:06;14.80;99.90
24522;DHT22;12680;57.804;12.190;2023-07-13T00:26:33;16.70;99.90
24522;DHT22;12680;57.804;12.190;2023-07-13T00:29:00;17.20;99.90
24522;DHT22;12680;57.804;12.190;2023-07-13T00:31:27;14.70;99.90
24522;DHT22;12680;57.804;12.190;2023-07-13T00:33:53;14.70;99.90
24522;DHT22;12680;57.804;12.190;2023-07-13T00:36:20;16.00;99.90
24522;DHT22;12680;57.804;12.190;2023-07-13T00:38:47;14.70;99.90
24522;DHT22;12680;57.804;12.190;2023-07-13T00:41:13;14.60;99.90
24522;DHT22;12680;57.804;12.190;2023-07-13T00:43:40;14.70;99.90
24522;DHT22;12680;57.804;12.190;2023-07-13T00:46:15;14.60;99.90
24522;DHT22;12680;57.804;12.190;2023-07-13T00:48:42;14.60;99.90
24522;DHT22;12680;57.804;12.190;2023-07-13T00:51:09;14.60;99.90
24522;DHT22;12680;57.804;12.190;2023-07-13T00:53:37;14.60;99.90
24522;DHT22;12680;57.804;12.190;2023-07-13T00:56:03;14.70;99.90
24522;DHT22;12680;57.804;12.190;2023-07-13T00:58:30;14.80;99.90
24522;DHT22;12680;57.804;12.190;2023-07-13T01:00:57;14.70;99.90
24522;DHT22;12680;57.804;12.190;2023-07-13T01:03:24;14.70;99.90
24522;DHT22;12680;57.804;12.190;2023-07-13T01:05:50;14.70;99.90
24522;DHT22;12680;57.804;12.190;2023-07-13T01:08:20;14.60;99.90
24522;DHT22;12680;57.804;12.190;2023-07-13T01:10:51;14.60;99.90
24522;DHT22;12680;57.804;12.190;2023-07-13T01:13:18;14.50;99.90
24522;DHT22;12680;57.804;12.190;2023-07-13T01:15:46;14.50;99.90
24522;DHT22;12680;57.804;12.190;2023-07-13T01:18:21;14.50;99.90
24522;DHT22;12680;57.804;12.190;2023-07-13T01:20:50;14.50;99.90
24522;DHT22;12680;57.804;12.190;2023-07-13T01:23:17;14.40;99.90
24522;DHT22;12680;57.804;12.190;2023-07-13T01:25:45;17.00;99.90
24522;DHT22;12680;57.804;12.190;2023-07-13T01:28:12;14.40;99.90
24522;DHT22;12680;57.804;12.190;2023-07-13T01:30:39;15.60;99.90
24522;DHT22;12680;57.804;12.190;2023-07-13T01:33:07;14.30;99.90
24522;DHT22;12680;57.804;12.190;2023-07-13T01:35:34;14.30;99.90
24522;DHT22;12680;57.804;12.190;2023-07-13T01:38:01;15.50;99.90
24522;DHT22;12680;57.804;12.190;2023-07-13T01:40:28;14.30;99.90
24522;DHT22;12680;57.804;12.190;2023-07-13T01:42:55;14.30;99.90
24522;DHT22;12680;57.804;12.190;2023-07-13T01:45:22;14.30;99.90
24522;DHT22;12680;57.804;12.190;2023-07-13T01:47:49;17.00;99.90
24522;DHT22;12680;57.804;12.190;2023-07-13T01:50:16;14.30;99.90
24522;DHT22;12680;57.804;12.190;2023-07-13T01:52:42;16.50;99.90
24522;DHT22;12680;57.804;12.190;2023-07-13T01:55:09;15.60;99.90
24522;DHT22;12680;57.804;12.190;2023-07-13T01:57:36;14.30;99.90
24522;DHT22;12680;57.804;12.190;2023-07-13T02:00:03;14.40;99.90
24522;DHT22;12680;57.804;12.190;2023-07-13T02:02:31;14.40;99.90
24522;DHT22;12680;57.804;12.190;2023-07-13T02:04:58;14.50;99.90
24522;DHT22;12680;57.804;12.190;2023-07-13T02:07:25;15.60;99.90
24522;DHT22;12680;57.804;12.190;2023-07-13T02:09:51;14.50;99.90
24522;DHT22;12680;57.804;12.190;2023-07-13T02:12:18;14.60;99.90
24522;DHT22;12680;57.804;12.190;2023-07-13T02:14:45;14.70;99.90
24522;DHT22;12680;57.804;12.190;2023-07-13T02:17:11;14.70;99.90
24522;DHT22;12680;57.804;12.190;2023-07-13T02:19:38;14.80;99.90
24522;DHT22;12680;57.804;12.190;2023-07-13T02:22:05;14.90;99.90
24522;DHT22;12680;57.804;12.190;2023-07-13T02:24:32;14.90;99.90
24522;DHT22;12680;57.804;12.190;2023-07-13T02:26:58;15.80;99.90
24522;DHT22;12680;57.804;12.190;2023-07-13T02:29:25;14.90;99.90
24522;DHT22;12680;57.804;12.190;2023-07-13T02:31:52;14.90;99.90
24522;DHT22;12680;57.804;12.190;2023-07-13T02:34:19;15.00;99.90
24522;DHT22;12680;57.804;12.190;2023-07-13T02:36:45;16.50;99.90
24522;DHT22;12680;57.804;12.190;2023-07-13T02:39:13;15.30;99.90
24522;DHT22;12680;57.804;12.190;2023-07-13T02:41:40;16.00;99.90
24522;DHT22;12680;57.804;12.190;2023-07-13T02:44:06;15.10;99.90
24522;DHT22;12680;57.804;12.190;2023-07-13T02:46:35;15.20;99.90
24522;DHT22;12680;57.804;12.190;2023-07-13T02:49:03;17.90;99.90
24522;DHT22;12680;57.804;12.190;2023-07-13T02:51:29;15.20;99.90
24522;DHT22;12680;57.804;12.190;2023-07-13T02:53:56;15.20;99.90
24522;DHT22;12680;57.804;12.190;2023-07-13T02:56:23;15.20;99.90
24522;DHT22;12680;57.804;12.190;2023-07-13T02:58:51;15.10;99.90
24522;DHT22;12680;57.804;12.190;2023-07-13T03:01:17;15.10;99.90
24522;DHT22;12680;57.804;12.190;2023-07-13T03:03:46;15.10;99.90
24522;DHT22;12680;57.804;12.190;2023-07-13T03:06:13;17.60;99.90
24522;DHT22;12680;57.804;12.190;2023-07-13T03:08:40;15.00;99.90
24522;DHT22;12680;57.804;12.190;2023-07-13T03:11:08;15.00;99.90
24522;DHT22;12680;57.804;12.190;2023-07-13T03:13:35;15.00;99.90
24522;DHT22;12680;57.804;12.190;2023-07-13T03:16:02;16.60;99.90
24522;DHT22;12680;57.804;12.190;2023-07-13T03:18:29;15.10;99.90
24522;DHT22;12680;57.804;12.190;2023-07-13T03:20:56;15.10;99.90
24522;DHT22;12680;57.804;12.190;2023-07-13T03:23:23;15.20;99.90
24522;DHT22;12680;57.804;12.190;2023-07-13T03:26:00;15.20;99.90
24522;DHT22;12680;57.804;12.190;2023-07-13T03:28:27;15.30;99.90
24522;DHT22;12680;57.804;12.190;2023-07-13T03:31:01;16.80;99.90
24522;DHT22;12680;57.804;12.190;2023-07-13T03:33:29;15.20;99.90
24522;DHT22;12680;57.804;12.190;2023-07-13T03:35:55;16.60;99.90
24522;DHT22;12680;57.804;12.190;2023-07-13T03:38:22;15.30;99.90
24522;DHT22;12680;57.804;12.190;2023-07-13T03:40:49;15.20;99.90
24522;DHT22;12680;57.804;12.190;2023-07-13T03:43:16;15.20;99.90
24522;DHT22;12680;57.804;12.190;2023-07-13T03:45:42;17.70;99.90
24522;DHT22;12680;57.804;12.190;2023-07-13T03:48:10;16.40;99.90
24522;DHT22;12680;57.804;12.190;2023-07-13T03:50:37;17.40;99.90
24522;DHT22;12680;57.804;12.190;2023-07-13T03:53:04;12.60;99.90
24522;DHT22;12680;57.804;12.190;2023-07-13T03:55:31;16.10;99.90
24522;DHT22;12680;57.804;12.190;2023-07-13T03:58:42;15.00;99.90
24522;DHT22;12680;57.804;12.190;2023-07-13T04:00:48;15.10;99.90
24522;DHT22;12680;57.804;12.190;2023-07-13T04:03:15;16.40;99.90
24522;DHT22;12680;57.804;12.190;2023-07-13T04:05:42;16.70;99.90
24522;DHT22;12680;57.804;12.190;2023-07-13T04:08:09;16.30;99.90
24522;DHT22;12680;57.804;12.190;2023-07-13T04:10:36;15.70;99.90
24522;DHT22;12680;57.804;12.190;2023-07-13T04:13:02;15.90;99.90
24522;DHT22;12680;57.804;12.190;2023-07-13T04:15:30;17.10;99.90
24522;DHT22;12680;57.804;12.190;2023-07-13T04:17:56;16.10;99.90
24522;DHT22;12680;57.804;12.190;2023-07-13T04:20:26;16.20;99.90
24522;DHT22;12680;57.804;12.190;2023-07-13T04:22:53;16.20;99.90
24522;DHT22;12680;57.804;12.190;2023-07-13T04:25:20;17.70;99.90
24522;DHT22;12680;57.804;12.190;2023-07-13T04:27:47;18.50;99.90
24522;DHT22;12680;57.804;12.190;2023-07-13T04:30:14;16.50;99.90
24522;DHT22;12680;57.804;12.190;2023-07-13T04:32:41;16.50;99.90
24522;DHT22;12680;57.804;12.190;2023-07-13T04:35:07;16.60;99.90
24522;DHT22;12680;57.804;12.190;2023-07-13T04:37:35;16.60;99.90
24522;DHT22;12680;57.804;12.190;2023-07-13T04:40:02;18.00;99.90
24522;DHT22;12680;57.804;12.190;2023-07-13T04:42:30;16.80;99.90
24522;DHT22;12680;57.804;12.190;2023-07-13T04:44:56;17.80;99.90
24522;DHT22;12680;57.804;12.190;2023-07-13T04:47:23;16.90;99.90
24522;DHT22;12680;57.804;12.190;2023-07-13T04:49:50;19.30;99.90
24522;DHT22;12680;57.804;12.190;2023-07-13T04:52:16;17.00;99.90
24522;DHT22;12680;57.804;12.190;2023-07-13T04:54:43;17.10;99.90
24522;DHT22;12680;57.804;12.190;2023-07-13T04:57:10;17.10;99.90
24522;DHT22;12680;57.804;12.190;2023-07-13T04:59:36;17.10;99.90
24522;DHT22;12680;57.804;12.190;2023-07-13T05:02:03;18.70;99.90
24522;DHT22;12680;57.804;12.190;2023-07-13T05:04:30;17.10;99.90
24522;DHT22;12680;57.804;12.190;2023-07-13T05:06:57;18.30;99.90
24522;DHT22;12680;57.804;12.190;2023-07-13T05:09:23;19.10;99.90
24522;DHT22;12680;57.804;12.190;2023-07-13T05:11:50;18.80;99.90
24522;DHT22;12680;57.804;12.190;2023-07-13T05:14:17;17.90;99.90
24522;DHT22;12680;57.804;12.190;2023-07-13T05:16:43;18.60;99.90
24522;DHT22;12680;57.804;12.190;2023-07-13T05:19:11;19.60;99.90
24522;DHT22;12680;57.804;12.190;2023-07-13T05:21:38;17.50;99.90
24522;DHT22;12680;57.804;12.190;2023-07-13T05:24:05;17.50;99.90
24522;DHT22;12680;57.804;12.190;2023-07-13T05:26:49;17.40;99.90
24522;DHT22;12680;57.804;12.190;2023-07-13T05:29:15;17.50;99.90
24522;DHT22;12680;57.804;12.190;2023-07-13T05:31:42;19.20;99.90
24522;DHT22;12680;57.804;12.190;2023-07-13T05:34:09;17.40;99.90
24522;DHT22;12680;57.804;12.190;2023-07-13T05:36:35;17.30;99.90
24522;DHT22;12680;57.804;12.190;2023-07-13T05:39:03;18.00;99.90
24522;DHT22;12680;57.804;12.190;2023-07-13T05:41:30;17.50;99.90
24522;DHT22;12680;57.804;12.190;2023-07-13T05:43:56;17.80;99.90
24522;DHT22;12680;57.804;12.190;2023-07-13T07:09:45;18.10;99.90
24522;DHT22;12680;57.804;12.190;2023-07-13T07:12:12;18.10;99.90
24522;DHT22;12680;57.804;12.190;2023-07-13T07:14:41;17.30;99.90
24522;DHT22;12680;57.804;12.190;2023-07-13T07:17:07;17.70;99.90
24522;DHT22;12680;57.804;12.190;2023-07-13T07:19:34;18.00;99.90
24522;DHT22;12680;57.804;12.190;2023-07-13T07:22:01;19.60;99.90
24522;DHT22;12680;57.804;12.190;2023-07-13T07:24:28;18.40;99.90
24522;DHT22;12680;57.804;12.190;2023-07-13T07:26:54;18.50;99.90
24522;DHT22;12680;57.804;12.190;2023-07-13T07:29:24;18.50;99.90
24522;DHT22;12680;57.804;12.190;2023-07-13T07:31:55;18.50;99.90
24522;DHT22;12680;57.804;12.190;2023-07-13T07:34:25;20.20;99.90
24522;DHT22;12680;57.804;12.190;2023-07-13T07:36:52;18.60;99.90
24522;DHT22;12680;57.804;12.190;2023-07-13T07:39:22;21.20;99.90
24522;DHT22;12680;57.804;12.190;2023-07-13T07:41:49;18.70;99.90
24522;DHT22;12680;57.804;12.190;2023-07-13T07:44:18;18.70;99.90
24522;DHT22;12680;57.804;12.190;2023-07-13T07:46:45;21.10;99.90
24522;DHT22;12680;57.804;12.190;2023-07-13T07:49:12;20.70;99.90
24522;DHT22;12680;57.804;12.190;2023-07-13T07:51:38;21.00;99.90
24522;DHT22;12680;57.804;12.190;2023-07-13T07:54:06;18.50;99.90
24522;DHT22;12680;57.804;12.190;2023-07-13T07:56:33;18.60;99.90
24522;DHT22;12680;57.804;12.190;2023-07-13T07:59:03;18.70;99.90
24522;DHT22;12680;57.804;12.190;2023-07-13T08:01:32;19.80;99.90
24522;DHT22;12680;57.804;12.190;2023-07-13T08:04:02;20.60;99.90
24522;DHT22;12680;57.804;12.190;2023-07-13T08:06:32;18.50;99.90
24522;DHT22;12680;57.804;12.190;2023-07-13T08:09:02;18.40;99.90
24522;DHT22;12680;57.804;12.190;2023-07-13T08:11:31;18.20;99.90
24522;DHT22;12680;57.804;12.190;2023-07-13T08:14:00;19.40;99.90
24522;DHT22;12680;57.804;12.190;2023-07-13T08:16:27;20.10;99.90
24522;DHT22;12680;57.804;12.190;2023-07-13T08:18:54;20.40;99.90
24522;DHT22;12680;57.804;12.190;2023-07-13T10:24:31;21.80;97.90
24522;DHT22;12680;57.804;12.190;2023-07-13T10:27:05;21.80;98.20
24522;DHT22;12680;57.804;12.190;2023-07-13T10:29:37;22.00;98.50
24522;DHT22;12680;57.804;12.190;2023-07-13T10:32:08;22.50;98.50
24522;DHT22;12680;57.804;12.190;2023-07-13T10:34:36;22.80;98.00
24522;DHT22;12680;57.804;12.190;2023-07-13T10:37:02;22.90;97.60
24522;DHT22;12680;57.804;12.190;2023-07-13T10:39:31;22.90;97.40
24522;DHT22;12680;57.804;12.190;2023-07-13T10:42:00;20.90;96.20
24522;DHT22;12680;57.804;12.190;2023-07-13T10:44:30;22.70;96.90
24522;DHT22;12680;57.804;12.190;2023-07-13T10:47:01;22.40;97.40
24522;DHT22;12680;57.804;12.190;2023-07-13T10:49:30;22.50;97.10
24522;DHT22;12680;57.804;12.190;2023-07-13T10:51:57;22.30;97.00
24522;DHT22;12680;57.804;12.190;2023-07-13T10:54:30;23.60;97.60
24522;DHT22;12680;57.804;12.190;2023-07-13T10:57:08;22.20;97.10
24522;DHT22;12680;57.804;12.190;2023-07-13T10:59:41;22.00;97.20
24522;DHT22;12680;57.804;12.190;2023-07-13T11:04:42;21.50;97.40
24522;DHT22;12680;57.804;12.190;2023-07-13T11:07:23;21.50;97.60
24522;DHT22;12680;57.804;12.190;2023-07-13T11:09:51;21.50;97.70
24522;DHT22;12680;57.804;12.190;2023-07-13T11:18:11;21.20;97.50
24522;DHT22;12680;57.804;12.190;2023-07-13T11:22:51;21.70;97.70
24522;DHT22;12680;57.804;12.190;2023-07-13T11:30:41;22.20;96.20
24522;DHT22;12680;57.804;12.190;2023-07-13T11:33:14;22.20;95.90
24522;DHT22;12680;57.804;12.190;2023-07-13T11:35:45;22.00;96.10
24522;DHT22;12680;57.804;12.190;2023-07-13T11:38:14;22.00;96.00
24522;DHT22;12680;57.804;12.190;2023-07-13T11:40:43;23.50;96.80
24522;DHT22;12680;57.804;12.190;2023-07-13T11:43:11;22.00;96.10
24522;DHT22;12680;57.804;12.190;2023-07-13T11:45:39;21.80;96.40
24522;DHT22;12680;57.804;12.190;2023-07-13T11:48:27;22.50;96.70
24522;DHT22;12680;57.804;12.190;2023-07-13T11:50:58;21.90;96.40
24522;DHT22;12680;57.804;12.190;2023-07-13T11:53:27;21.90;96.20
24522;DHT22;12680;57.804;12.190;2023-07-13T11:55:55;22.90;96.60
24522;DHT22;12680;57.804;12.190;2023-07-13T11:58:23;21.90;96.40
24522;DHT22;12680;57.804;12.190;2023-07-13T12:00:50;22.20;96.30
24522;DHT22;12680;57.804;12.190;2023-07-13T12:03:20;22.80;95.90
24522;DHT22;12680;57.804;12.190;2023-07-13T12:05:57;22.30;95.90
24522;DHT22;12680;57.804;12.190;2023-07-13T12:08:24;21.70;95.70
24522;DHT22;12680;57.804;12.190;2023-07-13T12:11:03;21.90;95.80
24522;DHT22;12680;57.804;12.190;2023-07-13T12:13:37;22.00;95.80
24522;DHT22;12680;57.804;12.190;2023-07-13T12:16:11;22.30;95.50
24522;DHT22;12680;57.804;12.190;2023-07-13T12:18:39;22.50;95.40
24522;DHT22;12680;57.804;12.190;2023-07-13T12:23:34;22.90;94.90
24522;DHT22;12680;57.804;12.190;2023-07-13T12:26:03;23.00;95.10
24522;DHT22;12680;57.804;12.190;2023-07-13T12:31:01;22.90;94.20
24522;DHT22;12680;57.804;12.190;2023-07-13T12:33:29;23.20;94.30
24522;DHT22;12680;57.804;12.190;2023-07-13T12:35:56;22.90;94.60
24522;DHT22;12680;57.804;12.190;2023-07-13T12:38:26;24.50;95.30
24522;DHT22;12680;57.804;12.190;2023-07-13T12:40:53;23.30;94.20
24522;DHT22;12680;57.804;12.190;2023-07-13T12:43:21;24.20;94.50
24522;DHT22;12680;57.804;12.190;2023-07-13T12:46:23;23.60;94.80
24522;DHT22;12680;57.804;12.190;2023-07-13T12:48:42;23.80;93.50
24522;DHT22;12680;57.804;12.190;2023-07-13T12:51:16;24.20;93.10
24522;DHT22;12680;57.804;12.190;2023-07-13T12:53:47;25.20;93.10
24522;DHT22;12680;57.804;12.190;2023-07-13T12:56:21;25.90;93.30
24522;DHT22;12680;57.804;12.190;2023-07-13T12:58:49;23.40;92.70
24522;DHT22;12680;57.804;12.190;2023-07-13T13:01:21;24.30;93.10
24522;DHT22;12680;57.804;12.190;2023-07-13T13:03:50;25.00;93.20
24522;DHT22;12680;57.804;12.190;2023-07-13T13:06:26;24.40;92.40
24522;DHT22;12680;57.804;12.190;2023-07-13T13:08:54;23.70;92.30
24522;DHT22;12680;57.804;12.190;2023-07-13T13:11:22;26.00;92.70
24522;DHT22;12680;57.804;12.190;2023-07-13T13:13:49;23.60;92.10
24522;DHT22;12680;57.804;12.190;2023-07-13T13:18:53;23.70;91.80
24522;DHT22;12680;57.804;12.190;2023-07-13T13:21:20;24.40;92.40
24522;DHT22;12680;57.804;12.190;2023-07-13T13:23:47;23.80;92.10
24522;DHT22;12680;57.804;12.190;2023-07-13T13:26:14;24.70;92.00
24522;DHT22;12680;57.804;12.190;2023-07-13T13:28:44;24.40;91.00
24522;DHT22;12680;57.804;12.190;2023-07-13T13:31:11;23.90;91.00
24522;DHT22;12680;57.804;12.190;2023-07-13T13:33:40;23.80;90.90
24522;DHT22;12680;57.804;12.190;2023-07-13T13:36:13;24.50;90.90
24522;DHT22;12680;57.804;12.190;2023-07-13T13:38:42;23.30;91.10
24522;DHT22;12680;57.804;12.190;2023-07-13T13:41:09;22.50;91.00
24522;DHT22;12680;57.804;12.190;2023-07-13T13:43:36;22.10;91.50
24522;DHT22;12680;57.804;12.190;2023-07-13T13:46:05;23.00;92.20
24522;DHT22;12680;57.804;12.190;2023-07-13T13:48:37;21.90;92.50
24522;DHT22;12680;57.804;12.190;2023-07-13T13:53:44;22.10;92.80
24522;DHT22;12680;57.804;12.190;2023-07-13T13:56:12;23.80;93.00
24522;DHT22;12680;57.804;12.190;2023-07-13T13:58:39;22.10;92.60
24522;DHT22;12680;57.804;12.190;2023-07-13T14:01:13;23.10;93.00
24522;DHT22;12680;57.804;12.190;2023-07-13T14:03:40;22.20;92.80
24522;DHT22;12680;57.804;12.190;2023-07-13T14:06:09;22.80;93.30
24522;DHT22;12680;57.804;12.190;2023-07-13T14:08:38;23.30;93.10
24522;DHT22;12680;57.804;12.190;2023-07-13T14:11:05;22.40;92.50
24522;DHT22;12680;57.804;12.190;2023-07-13T14:13:33;22.10;92.20
24522;DHT22;12680;57.804;12.190;2023-07-13T14:16:02;22.70;92.40
24522;DHT22;12680;57.804;12.190;2023-07-13T14:18:29;21.50;92.70
24522;DHT22;12680;57.804;12.190;2023-07-13T14:20:56;23.00;93.50
24522;DHT22;12680;57.804;12.190;2023-07-13T14:23:23;21.40;93.00
24522;DHT22;12680;57.804;12.190;2023-07-13T14:25:49;23.20;93.60
24522;DHT22;12680;57.804;12.190;2023-07-13T14:30:43;22.00;93.20
24522;DHT22;12680;57.804;12.190;2023-07-13T14:33:11;22.10;93.30
24522;DHT22;12680;57.804;12.190;2023-07-13T14:35:38;21.20;93.30
24522;DHT22;12680;57.804;12.190;2023-07-13T14:38:05;21.50;93.40
24522;DHT22;12680;57.804;12.190;2023-07-13T14:40:34;21.40;93.40
24522;DHT22;12680;57.804;12.190;2023-07-13T14:43:01;22.30;93.50
24522;DHT22;12680;57.804;12.190;2023-07-13T14:45:28;21.80;93.40
24522;DHT22;12680;57.804;12.190;2023-07-13T14:47:56;21.90;93.20
24522;DHT22;12680;57.804;12.190;2023-07-13T14:50:31;23.30;93.70
24522;DHT22;12680;57.804;12.190;2023-07-13T14:52:59;21.60;93.40
24522;DHT22;12680;57.804;12.190;2023-07-13T14:55:25;21.50;93.40
24522;DHT22;12680;57.804;12.190;2023-07-13T14:57:53;23.00;94.10
24522;DHT22;12680;57.804;12.190;2023-07-13T15:00:20;22.00;94.10
24522;DHT22;12680;57.804;12.190;2023-07-13T15:02:47;20.80;94.00
24522;DHT22;12680;57.804;12.190;2023-07-13T15:05:20;22.00;94.60
24522;DHT22;12680;57.804;12.190;2023-07-13T15:07:49;20.60;94.40
24522;DHT22;12680;57.804;12.190;2023-07-13T17:28:13;21.90;94.20
24522;DHT22;12680;57.804;12.190;2023-07-13T17:30:40;22.20;94.40
24522;DHT22;12680;57.804;12.190;2023-07-13T17:33:41;24.30;93.60
24522;DHT22;12680;57.804;12.190;2023-07-13T17:36:03;22.70;92.30
24522;DHT22;12680;57.804;12.190;2023-07-13T17:38:34;22.20;92.30
24522;DHT22;12680;57.804;12.190;2023-07-13T17:41:02;22.20;92.60
24522;DHT22;12680;57.804;12.190;2023-07-13T17:43:31;21.80;93.20
24522;DHT22;12680;57.804;12.190;2023-07-13T17:45:58;21.70;92.90
24522;DHT22;12680;57.804;12.190;2023-07-13T17:48:25;21.50;92.70
24522;DHT22;12680;57.804;12.190;2023-07-13T19:26:54;17.90;95.80
24522;DHT22;12680;57.804;12.190;2023-07-13T19:29:23;18.10;96.20
24522;DHT22;12680;57.804;12.190;2023-07-13T19:31:56;17.90;96.30
24522;DHT22;12680;57.804;12.190;2023-07-13T19:34:30;17.90;96.40
24522;DHT22;12680;57.804;12.190;2023-07-13T19:37:21;19.80;97.10
24522;DHT22;12680;57.804;12.190;2023-07-13T19:39:54;18.60;97.30
24522;DHT22;12680;57.804;12.190;2023-07-13T19:42:22;17.20;96.60
24522;DHT22;12680;57.804;12.190;2023-07-13T19:44:49;17.30;96.80
24522;DHT22;12680;57.804;12.190;2023-07-13T19:47:19;19.60;97.40
24522;DHT22;12680;57.804;12.190;2023-07-13T19:49:46;19.30;97.50
24522;DHT22;12680;57.804;12.190;2023-07-13T19:52:15;17.00;97.00
24522;DHT22;12680;57.804;12.190;2023-07-13T19:54:42;16.90;97.10
24522;DHT22;12680;57.804;12.190;2023-07-13T19:57:16;16.80;97.10
24522;DHT22;12680;57.804;12.190;2023-07-13T19:59:43;16.70;97.10
24522;DHT22;12680;57.804;12.190;2023-07-13T20:02:18;16.60;97.30
24522;DHT22;12680;57.804;12.190;2023-07-13T20:04:45;16.60;97.30
24522;DHT22;12680;57.804;12.190;2023-07-13T20:07:13;19.10;98.10
24522;DHT22;12680;57.804;12.190;2023-07-13T20:09:41;16.40;97.40
24522;DHT22;12680;57.804;12.190;2023-07-13T20:12:15;16.50;97.50
24522;DHT22;12680;57.804;12.190;2023-07-13T20:14:44;18.80;98.20
24522;DHT22;12680;57.804;12.190;2023-07-13T20:17:26;16.50;97.50
24522;DHT22;12680;57.804;12.190;2023-07-13T20:19:54;16.40;97.60
24522;DHT22;12680;57.804;12.190;2023-07-13T20:22:25;16.40;97.60
24522;DHT22;12680;57.804;12.190;2023-07-13T20:24:52;17.40;97.90
24522;DHT22;12680;57.804;12.190;2023-07-13T20:27:19;16.40;97.70
24522;DHT22;12680;57.804;12.190;2023-07-13T20:29:49;16.30;97.70
24522;DHT22;12680;57.804;12.190;2023-07-13T20:32:15;18.30;98.40
24522;DHT22;12680;57.804;12.190;2023-07-13T20:34:42;16.20;97.80
24522;DHT22;12680;57.804;12.190;2023-07-13T20:39:42;16.10;97.90
24522;DHT22;12680;57.804;12.190;2023-07-13T20:42:10;18.40;98.50
24522;DHT22;12680;57.804;12.190;2023-07-13T20:44:36;16.00;97.90
24522;DHT22;12680;57.804;12.190;2023-07-13T20:47:03;16.00;98.00
24522;DHT22;12680;57.804;12.190;2023-07-13T20:49:30;15.90;98.00
24522;DHT22;12680;57.804;12.190;2023-07-13T20:51:57;15.90;98.10
24522;DHT22;12680;57.804;12.190;2023-07-13T20:54:24;15.80;98.50
24522;DHT22;12680;57.804;12.190;2023-07-13T20:56:51;18.10;98.90
24522;DHT22;12680;57.804;12.190;2023-07-13T20:59:18;15.70;98.30
24522;DHT22;12680;57.804;12.190;2023-07-13T21:01:45;15.60;98.30
24522;DHT22;12680;57.804;12.190;2023-07-13T21:04:13;15.60;98.30
24522;DHT22;12680;57.804;12.190;2023-07-13T21:06:40;15.50;98.40
24522;DHT22;12680;57.804;12.190;2023-07-13T21:09:14;15.40;98.50
24522;DHT22;12680;57.804;12.190;2023-07-13T21:11:42;15.40;98.60
24522;DHT22;12680;57.804;12.190;2023-07-13T21:14:09;15.30;98.60
24522;DHT22;12680;57.804;12.190;2023-07-13T21:16:35;15.30;98.70
24522;DHT22;12680;57.804;12.190;2023-07-13T21:19:02;15.30;98.70
24522;DHT22;12680;57.804;12.190;2023-07-13T21:21:29;15.20;98.70
24522;DHT22;12680;57.804;12.190;2023-07-13T21:23:57;15.20;98.80
24522;DHT22;12680;57.804;12.190;2023-07-13T21:26:24;17.10;99.40
24522;DHT22;12680;57.804;12.190;2023-07-13T21:28:51;15.10;98.80
24522;DHT22;12680;57.804;12.190;2023-07-13T21:31:24;15.10;98.90
24522;DHT22;12680;57.804;12.190;2023-07-13T21:33:54;15.10;99.10
24522;DHT22;12680;57.804;12.190;2023-07-13T21:36:21;15.10;99.20
24522;DHT22;12680;57.804;12.190;2023-07-13T21:38:51;15.00;99.20
24522;DHT22;12680;57.804;12.190;2023-07-13T21:41:22;15.00;99.20
24522;DHT22;12680;57.804;12.190;2023-07-13T21:43:50;15.60;99.40
24522;DHT22;12680;57.804;12.190;2023-07-13T21:46:17;15.00;99.30
24522;DHT22;12680;57.804;12.190;2023-07-13T21:48:44;14.90;99.40
24522;DHT22;12680;57.804;12.190;2023-07-13T21:51:21;14.90;99.40
24522;DHT22;12680;57.804;12.190;2023-07-13T21:53:48;14.90;99.40
24522;DHT22;12680;57.804;12.190;2023-07-13T21:56:16;14.80;99.50
24522;DHT22;12680;57.804;12.190;2023-07-13T21:58:44;14.90;99.70
24522;DHT22;12680;57.804;12.190;2023-07-13T22:01:13;14.80;99.70
24522;DHT22;12680;57.804;12.190;2023-07-13T22:03:41;14.80;99.70
24522;DHT22;12680;57.804;12.190;2023-07-13T22:06:09;14.80;99.70
24522;DHT22;12680;57.804;12.190;2023-07-13T22:08:44;14.80;99.70
24522;DHT22;12680;57.804;12.190;2023-07-13T22:11:11;14.80;99.80
24522;DHT22;12680;57.804;12.190;2023-07-13T22:13:39;14.80;99.90
24522;DHT22;12680;57.804;12.190;2023-07-13T22:16:26;14.90;99.90
24522;DHT22;12680;57.804;12.190;2023-07-13T22:18:55;14.90;99.90
24522;DHT22;12680;57.804;12.190;2023-07-13T22:21:25;15.10;99.90
24522;DHT22;12680;57.804;12.190;2023-07-13T22:23:52;15.10;99.90
24522;DHT22;12680;57.804;12.190;2023-07-13T22:28:47;15.20;99.90
24522;DHT22;12680;57.804;12.190;2023-07-13T22:31:14;15.20;99.90
24522;DHT22;12680;57.804;12.190;2023-07-13T22:33:41;16.40;99.90
24522;DHT22;12680;57.804;12.190;2023-07-13T22:36:09;15.30;99.90
24522;DHT22;12680;57.804;12.190;2023-07-13T22:38:36;15.40;99.90
24522;DHT22;12680;57.804;12.190;2023-07-13T22:41:03;15.40;99.90
24522;DHT22;12680;57.804;12.190;2023-07-13T22:43:31;15.50;99.90
24522;DHT22;12680;57.804;12.190;2023-07-13T22:45:58;17.00;99.90
24522;DHT22;12680;57.804;12.190;2023-07-13T22:48:27;16.10;99.90
24522;DHT22;12680;57.804;12.190;2023-07-13T22:50:54;15.50;99.90
24522;DHT22;12680;57.804;12.190;2023-07-13T22:53:25;17.70;99.90
24522;DHT22;12680;57.804;12.190;2023-07-13T22:55:52;15.50;99.90
24522;DHT22;12680;57.804;12.190;2023-07-13T22:58:20;15.60;99.90
24522;DHT22;12680;57.804;12.190;2023-07-13T23:00:48;15.60;99.90
24522;DHT22;12680;57.804;12.190;2023-07-13T23:03:15;17.10;99.90
24522;DHT22;12680;57.804;12.190;2023-07-13T23:05:43;17.10;99.90
24522;DHT22;12680;57.804;12.190;2023-07-13T23:08:14;16.00;99.90
24522;DHT22;12680;57.804;12.190;2023-07-13T23:10:41;17.90;99.90
24522;DHT22;12680;57.804;12.190;2023-07-13T23:13:10;15.70;99.90
24522;DHT22;12680;57.804;12.190;2023-07-13T23:15:38;15.60;99.90
24522;DHT22;12680;57.804;12.190;2023-07-13T23:18:05;16.90;99.90